Weather observations for the past three days for
St. James Municipal Airport
Metric (Imperial)
Date Time (cdt) Wind (kph) Vis. (km) Weather Sky Cond. Temperature (ºC) Relative Humidity Wind Chill (°C) Heat Index (°C) Pressure Precipitation (cm)
Air Dwpt 6 hour altimeter (cm) sea level (mb) 1 hr 3 hr 6 hr
Max. Min.
06 00:15 NW 9 16.09 Overcast OVC070 3 -4 60% 1 76.1 0.0
05 23:55 NW 11 16.09 Mostly Cloudy BKN070 2 -4 65% -1 76.1 0.0
05 23:35 NW 13 16.09 Fair CLR 3 -5 56% 0 76.07 0.0
05 23:15 NW 13 14.48 Fair CLR 3 -5 56% 0 76.07 0.0
05 22:55 NW 11 16.09 Fair CLR 3 -5 56% 0 76.07 0.0
05 22:35 N 15 16.09 Fair CLR 4 -4 56% 1 76.05 0.0
05 22:15 N 19 16.09 Mostly Cloudy SCT065 BKN075 5 -4 53% 2 76.05 0.0
05 21:55 N 22 16.09 Overcast SCT065 OVC075 6 -4 49% 2 76.02 0.0
05 21:35 N 20 16.09 Overcast OVC075 7 -4 46% 4 76.02 0.0
05 21:15 N 19 16.09 Overcast OVC075 7 -4 46% 4 76 0.0
05 20:55 N 19 G 31 16.09 Overcast OVC075 8 -4 43% 5 75.97 0.0
05 20:35 N 22 16.09 Overcast OVC075 8 -4 43% 5 75.95 0.0
05 20:15 NW 24 G 39 16.09 Overcast OVC075 9 -6 34% 6 75.92 0.0
05 19:55 NW 31 16.09 Overcast FEW065 OVC080 9 -6 34% 5 75.9 0.0
05 19:35 NW 28 16.09 Overcast SCT070 OVC080 9 -6 34% 6 75.9 0.0
05 19:15 NW 30 16.09 Overcast OVC075 10 -6 32% 7 75.87 0.0
05 18:55 NW 24 G 39 16.09 Overcast OVC075 10 -6 32% 7 75.87 0.0
05 18:35 NW 39 16.09 Overcast and Breezy OVC075 10 -7 30% 6 75.84 0.0
05 18:15 NW 35 16.09 Overcast and Breezy OVC075 10 -6 32% 7 75.84 0.0
05 17:55 NW 30 16.09 Overcast OVC075 10 -6 32% 7 75.84 0.0
05 17:35 NW 33 G 43 16.09 Overcast and Breezy OVC075 11 -6 30% 75.82 0.0
05 17:15 NW 28 16.09 Overcast OVC075 11 -6 30% 75.82 0.0
05 16:55 NW 26 G 41 16.09 Overcast BKN075 OVC085 11 -6 30% 75.82 0.0
05 16:35 NW 28 G 37 16.09 Overcast OVC080 11 -6 30% 75.84 0.0
05 16:15 NW 35 16.09 Mostly Cloudy and Breezy BKN080 11 -6 30% 75.82 0.0
05 15:55 NW 28 G 39 16.09 Mostly Cloudy BKN075 BKN080 12 -6 28% 75.84 0.0
05 15:35 NW 28 G 39 16.09 Overcast BKN070 OVC080 11 -6 30% 75.84 0.0
05 15:15 NW 20 G 35 16.09 Overcast OVC075 11 -6 30% 75.87 0.0
05 14:55 NW 30 G 43 16.09 Overcast OVC080 11 -6 30% 75.87 0.0
05 14:35 NW 20 G 37 16.09 Overcast BKN075 OVC085 11 -6 30% 75.87 0.0
05 14:15 NW 24 G 35 16.09 Overcast FEW065 OVC075 10 -6 32% 7 75.9 0.0
05 13:55 NW 26 G 37 16.09 Overcast BKN065 OVC075 10 -5 35% 7 75.87 0.0
05 13:35 NW 26 G 39 16.09 Overcast BKN070 OVC080 10 -6 32% 7 75.9 0.0
05 13:15 N 26 16.09 Overcast OVC075 11 -5 32% 75.87 0.0
05 12:55 NW 28 G 37 16.09 Overcast BKN070 OVC075 10 -5 35% 7 75.87 0.0
05 12:35 NW 30 16.09 Overcast BKN065 OVC075 10 -5 35% 7 75.87 0.0
05 12:15 NW 24 16.09 Overcast BKN065 OVC075 10 -5 35% 7 75.87 0.0
05 11:55 NW 22 G 33 16.09 Mostly Cloudy BKN070 BKN075 10 -5 35% 7 75.87 0.0
05 11:35 NW 20 G 30 16.09 Mostly Cloudy FEW060 BKN070 10 -4 37% 8 75.87 0.0
05 11:15 N 20 G 33 16.09 Mostly Cloudy SCT050 SCT055 BKN070 10 -4 37% 8 75.9 0.0
05 10:55 NW 17 G 31 16.09 Mostly Cloudy SCT050 BKN055 BKN075 9 -3 43% 7 75.9 0.0
05 10:35 NW 19 16.09 A Few Clouds FEW050 FEW055 9 -3 43% 7 75.9 0.0
05 10:15 NW 17 G 30 16.09 Fair CLR 8 -3 46% 6 75.9 0.0
05 09:55 NW 13 14.48 Fair CLR 8 -3 46% 6 75.9 0.0
05 09:35 NW 11 16.09 Fair CLR 7 -3 49% 5 75.87 0.0
05 09:15 N 15 16.09 Fair CLR 7 -3 49% 5 75.87 0.0
05 08:55 NW 11 G 20 16.09 Fair CLR 7 -3 49% 5 75.84 0.0
05 08:35 NW 13 16.09 A Few Clouds FEW060 6 -2 57% 4 75.84 0.0
05 08:15 NW 11 16.09 Fair CLR 5 -1 66% 3 75.82 0.0
05 07:55 W 7 16.09 Fair CLR 4 -2 65% 2 75.82 0.0
05 07:35 W 7 16.09 Fair CLR 3 -1 75% 1 75.79 0.0
05 07:15 W 9 16.09 Fair CLR 2 -1 81% -0 75.79 0.0
05 06:55 NW 11 16.09 Fair CLR 0 -2 87% -3 75.77 0.0
05 06:35 NW 9 16.09 Fair CLR -1 -3 86% -4 75.72 0.0
05 06:15 NW 11 16.09 Fair CLR 0 -3 80% -3 75.72 0.0
05 05:55 NW 13 16.09 Fair CLR -1 -3 86% -5 75.69 0.0
05 05:35 W 15 16.09 Fair CLR -1 -3 86% -5 75.69 0.0
05 05:15 NW 15 16.09 Fair CLR -1 -3 86% -5 75.67 0.0
05 04:55 NW 15 16.09 Fair CLR 0 -3 80% -4 75.67 0.0
05 04:35 W 13 16.09 Fair CLR 0 -3 80% -4 75.67 0.0
05 04:15 W 13 16.09 Fair CLR 0 -3 80% -4 75.67 0.0
05 03:55 W 13 16.09 Fair CLR 1 -3 75% -2 75.64 0.0
05 03:35 W 15 16.09 Fair CLR 0 -3 80% -4 75.64 0.0
05 03:15 W 15 16.09 Fair CLR 0 -3 80% -4 75.64 0.0
05 02:55 W 13 16.09 Fair CLR 1 -3 75% -2 75.62 0.0
05 02:35 W 13 16.09 Fair CLR 1 -3 75% -2 75.62 0.0
05 02:15 W 13 16.09 Fair CLR 2 -3 70% -1 75.62 0.0
05 01:55 W 15 16.09 Fair CLR 2 -3 70% -2 75.62 0.0
05 01:35 W 13 16.09 Fair CLR 2 -3 70% -1 75.62 0.0
05 01:15 W 15 16.09 Fair CLR 3 -3 65% -0 75.62 0.0
05 00:55 W 13 16.09 Fair CLR 3 -3 65% 0 75.62 0.0
05 00:35 W 11 16.09 Fair CLR 2 -3 70% -1 75.62 0.0
05 00:15 W 11 16.09 Fair CLR 3 -3 65% 0 75.62 0.0
04 23:55 W 11 16.09 Fair CLR 4 -3 61% 2 75.59 0.0
04 23:35 W 11 16.09 Fair CLR 3 -3 65% 0 75.59 0.0
04 23:15 W 11 16.09 Fair CLR 4 -3 61% 2 75.59 0.0
04 22:55 W 9 16.09 Fair CLR 5 -3 57% 3 75.59 0.0
04 22:35 NW 9 16.09 Fair CLR 6 -4 49% 4 75.59 0.0
04 22:15 NW 13 16.09 Fair CLR 6 -4 49% 4 75.59 0.0
04 21:55 NW 13 16.09 Fair CLR 8 -4 43% 6 75.59 0.0
04 21:35 NW 15 16.09 Fair CLR 8 -4 43% 6 75.57 0.0
04 21:15 N 19 16.09 Fair CLR 8 -4 43% 5 75.54 0.0
04 20:55 NW 24 G 35 16.09 Fair CLR 9 -4 40% 6 75.51 0.0
04 20:35 NW 33 16.09 Fair and Breezy CLR 10 -5 35% 7 75.49 0.0
04 20:15 NW 33 G 44 16.09 Fair and Breezy CLR 11 -4 35% 75.46 0.0
04 19:55 NW 35 G 50 16.09 Fair and Breezy CLR 11 -4 35% 75.44 0.0
04 19:35 NW 33 G 48 16.09 Fair and Breezy CLR 12 -4 33% 75.41 0.0
04 19:15 NW 37 G 46 16.09 Fair and Breezy CLR 12 -3 35% 75.39 0.0
04 18:55 NW 39 G 54 16.09 Fair and Breezy CLR 13 -3 33% 75.39 0.0
04 18:35 NW 41 G 59 16.09 A Few Clouds and Breezy FEW060 13 -2 36% 75.39 0.0
04 18:15 NW 44 G 56 16.09 Fair and Windy CLR 13 -2 36% 75.36 0.0
04 17:55 NW 43 G 59 16.09 Fair and Windy CLR 13 -2 36% 75.36 0.0
04 17:35 NW 39 G 54 16.09 A Few Clouds and Breezy FEW065 14 -1 36% 75.34 0.0
04 17:15 NW 46 G 63 16.09 Partly Cloudy and Windy SCT065 16 -1 31% 75.29 0.0
04 16:55 NW 39 G 54 16.09 Fair and Breezy CLR 16 -1 31% 75.26 0.0
04 16:35 NW 46 16.09 Fair and Windy CLR 17 -1 30% 75.26 0.0
04 16:15 NW 41 G 56 16.09 Fair and Breezy CLR 16 -2 29% 75.23 0.0
04 15:55 NW 37 G 63 16.09 Fair and Breezy CLR 16 -1 31% 75.23 0.0
04 15:35 NW 43 G 61 16.09 Fair and Windy CLR 16 -1 31% 75.23 0.0
04 15:15 NW 39 G 54 16.09 A Few Clouds and Breezy FEW120 16 -1 31% 75.23 0.0
04 14:55 NW 37 G 56 14.48 Fair and Breezy CLR 17 -1 30% 75.23 0.0
04 14:35 NW 44 G 63 14.48 Fair and Windy CLR 16 -2 29% 75.21 0.0
04 14:15 NW 46 14.48 Fair and Windy CLR 17 -3 25% 75.18 0.0
04 13:55 NW 43 G 57 11.27 Fair and Windy CLR 17 -3 25% 75.16 0.0
04 13:35 NW 39 G 56 12.87 Fair and Breezy CLR 18 0 30% 75.16 0.0
04 13:15 NW 48 G 65 11.27 Fair and Windy CLR 17 -2 27% 75.16 0.0
04 12:55 NW 50 G 61 9.66 Unknown Precip Haze and Windy CLR 17 -1 30% 75.13 0.0
04 12:35 NW 39 G 54 6.44 Unknown Precip Haze and Breezy CLR 18 2 34% 75.11 0.0
04 12:15 NW 37 G 54 4.83 Unknown Precip Haze and Breezy CLR 18 0 30% 75.11 0.0
04 11:55 NW 35 G 46 16.09 Fair and Breezy CLR 18 1 32% 75.08 0.0
04 11:35 NW 33 G 54 14.48 Fair and Breezy CLR 18 0 30% 75.08 0.0
04 11:15 NW 37 G 50 14.48 Fair and Breezy CLR 18 0 30% 75.06 0.0
04 10:55 N 35 G 50 16.09 Fair and Breezy CLR 17 1 34% 75.03 0.0
04 10:35 NW 39 16.09 Fair and Breezy CLR 17 1 34% 75.03 0.0
04 10:15 NW 31 G 44 16.09 Fair CLR 16 1 36% 75.03 0.0
04 09:55 NW 35 16.09 Fair and Breezy CLR 16 1 36% 75.03 0.0
04 09:35 N 33 G 52 16.09 Fair and Breezy CLR 16 0 34% 75.03 0.0
04 09:15 N 35 G 46 16.09 Fair and Breezy CLR 15 2 42% 75.01 0.0
04 08:55 NW 31 G 43 16.09 Fair CLR 16 4 45% 75.01 0.0
04 08:35 NW 31 G 41 16.09 Fair CLR 16 4 45% 74.98 0.0
04 08:15 NW 35 G 44 16.09 Fair and Breezy CLR 15 4 48% 74.98 0.0
04 07:55 W 33 16.09 Fair and Breezy CLR 15 3 45% 74.98 0.0
04 07:35 W 28 16.09 Fair CLR 15 4 48% 74.96 0.0
04 07:15 W 28 16.09 Fair CLR 15 3 45% 74.88 0.0
04 06:55 W 33 16.09 Fair and Breezy CLR 15 3 45% 74.85 0.0
04 06:35 SW 33 G 44 16.09 Fair and Breezy CLR 14 3 48% 74.83 0.0
04 06:15 SW 31 16.09 Fair CLR 14 3 48% 74.83 0.0
04 05:55 SW 24 16.09 Fair CLR 13 3 51% 74.85 0.0
04 05:35 SW 26 16.09 Fair CLR 12 2 51% 74.85 0.0
04 05:15 SW 24 16.09 Fair CLR 12 2 51% 74.88 0.0
04 04:55 SW 20 16.09 Fair CLR 11 2 54% 74.9 0.0
04 04:35 SW 20 16.09 Fair CLR 11 2 54% 74.93 0.0
04 04:15 SW 22 16.09 Fair CLR 11 2 54% 74.93 0.0
04 03:55 SW 19 16.09 Fair CLR 10 2 58% 8 74.96 0.0
04 03:35 SW 19 16.09 Fair CLR 10 2 58% 8 74.98 0.0
04 03:15 SW 20 16.09 Fair CLR 9 2 62% 6 75.01 0.0
04 02:55 SW 19 16.09 Fair CLR 9 2 62% 7 75.03 0.0
04 02:35 SW 17 16.09 Fair CLR 9 2 62% 7 75.06 0.0
04 02:15 SW 19 16.09 Fair CLR 10 2 58% 8 75.08 0.0
04 01:35 SW 15 16.09 Fair CLR 10 2 58% 8 75.13 0.0
04 01:15 SW 15 16.09 Fair CLR 10 2 58% 8 75.16 0.0
04 00:55 SW 15 16.09 Fair CLR 11 2 54% 75.18 0.0
04 00:35 SW 17 16.09 Fair CLR 11 2 54% 75.21 0.0
04 00:15 W 9 G 19 16.09 Fair CLR 12 1 47% 75.23 0.0
03 23:55 SW 15 16.09 Fair CLR 12 1 47% 75.23 0.0
03 23:35 SW 15 16.09 Fair CLR 12 1 47% 75.26 0.0
03 23:15 SW 15 16.09 Fair CLR 12 1 47% 75.29 0.0
03 22:55 SW 13 16.09 Fair CLR 12 1 47% 75.31 0.0
03 22:35 SW 15 16.09 Fair CLR 13 1 44% 75.34 0.0
03 22:15 SW 11 16.09 Fair CLR 13 2 47% 75.36 0.0
03 21:55 SW 13 16.09 Fair CLR 13 2 47% 75.39 0.0
03 21:35 SW 13 16.09 Fair CLR 14 2 44% 75.39 0.0
03 21:15 W 11 16.09 Fair CLR 15 2 42% 75.39 0.0
03 20:55 W 11 16.09 Fair CLR 16 2 39% 75.39 0.0
03 20:35 W 6 16.09 Fair CLR 18 2 34% 75.36 0.0
03 20:15 W 6 16.09 Fair CLR 20 0 26% 75.36 0.0
03 19:55 Calm 16.09 Fair CLR 20 0 26% 75.36 0.0
03 19:35 NW 9 16.09 Fair CLR 21 0 25% 75.39 0.0
03 19:15 NW 11 G 22 16.09 Fair CLR 22 -1 22% 75.41 0.0
03 18:55 NW 15 G 26 16.09 Fair CLR 22 -1 22% 75.41 0.0
03 18:35 NW 15 G 35 16.09 Fair CLR 22 -2 20% 75.44 0.0
03 18:15 NW 20 16.09 Fair CLR 22 -1 22% 75.44 0.0
03 17:55 NW 26 G 35 16.09 Fair CLR 22 -1 22% 75.46 0.0
03 17:35 NW 22 G 33 16.09 Fair CLR 22 -1 22% 75.46 0.0
03 17:15 W 22 G 41 16.09 Fair CLR 22 -1 22% 75.46 0.0
03 16:55 W 22 G 41 16.09 Fair CLR 22 -1 22% 75.49 0.0
03 16:35 NW 28 G 37 16.09 Fair CLR 22 0 23% 75.49 0.0
03 16:15 NW 30 G 39 16.09 Fair CLR 22 0 23% 75.51 0.0
03 15:55 NW 31 16.09 Fair CLR 22 1 25% 75.51 0.0
03 15:35 NW 26 G 39 16.09 Fair CLR 22 1 25% 75.54 0.0
03 15:15 NW 31 G 43 16.09 Fair CLR 22 1 25% 75.57 0.0
03 14:55 NW 39 16.09 Fair and Breezy CLR 21 1 27% 75.57 0.0
03 14:35 NW 20 G 39 14.48 Fair CLR 21 0 25% 75.59 0.0
03 14:15 NW 28 G 43 16.09 Fair CLR 21 1 27% 75.62 0.0
03 13:55 NW 37 16.09 Fair and Breezy CLR 21 1 27% 75.62 0.0
03 13:35 NW 37 G 52 16.09 Fair and Breezy CLR 21 1 27% 75.62 0.0
03 13:15 NW 30 G 44 16.09 Fair CLR 20 1 28% 75.64 0.0
03 12:55 N 30 G 48 16.09 Fair CLR 20 1 28% 75.67 0.0
03 12:35 NW 30 G 54 16.09 Fair CLR 20 1 28% 75.67 0.0
03 12:15 N 30 G 48 16.09 Fair CLR 20 2 30% 75.67 0.0
03 11:55 N 35 16.09 Fair and Breezy CLR 20 2 30% 75.67 0.0
03 11:35 NW 39 G 48 16.09 Fair and Breezy CLR 19 3 35% 75.67 0.0
03 11:15 N 39 16.09 Fair and Breezy CLR 19 4 37% 75.64 0.0
03 10:55 NW 39 G 48 16.09 Fair and Breezy CLR 19 3 35% 75.67 0.0
03 10:35 NW 30 G 46 16.09 Fair CLR 18 3 37% 75.67 0.0
03 10:15 NW 30 G 44 16.09 Fair CLR 17 3 39% 75.64 0.0
03 09:55 NW 31 G 46 16.09 Fair CLR 16 3 42% 75.64 0.0
03 09:35 NW 31 G 44 16.09 Fair CLR 15 3 45% 75.64 0.0
03 09:15 NW 33 G 43 16.09 Fair and Breezy CLR 14 3 48% 75.64 0.0
03 08:55 NW 35 G 46 16.09 Fair and Breezy CLR 13 3 51% 75.62 0.0
03 08:35 NW 28 G 46 16.09 Fair CLR 13 3 51% 75.59 0.0
03 08:15 NW 35 16.09 Fair and Breezy CLR 12 3 54% 75.59 0.0
03 07:55 NW 31 G 43 16.09 Fair CLR 11 3 58% 75.57 0.0
03 07:35 NW 30 16.09 Fair CLR 11 3 58% 75.54 0.0
03 07:15 NW 30 G 46 16.09 Fair CLR 10 3 62% 7 75.51 0.0
03 06:55 NW 26 16.09 Fair CLR 10 3 62% 7 75.49 0.0
03 06:35 NW 24 G 37 16.09 Fair CLR 10 3 62% 7 75.46 0.0
03 06:15 NW 24 16.09 Fair CLR 10 3 62% 7 75.44 0.0
03 05:55 W 20 16.09 Fair CLR 11 3 58% 75.44 0.0
03 05:35 W 19 16.09 Fair CLR 12 3 54% 75.41 0.0
03 05:15 W 17 G 28 16.09 Fair CLR 12 3 54% 75.44 0.0
03 04:55 W 17 16.09 A Few Clouds FEW095 12 1 47% 75.44 0.0
03 04:35 W 17 16.09 Mostly Cloudy BKN095 12 1 47% 75.44 0.0
03 04:15 SW 19 16.09 Overcast OVC095 13 1 44% 75.46 0.0
03 03:55 SW 19 16.09 Overcast OVC095 13 2 47% 75.46 0.0
03 03:35 SW 17 16.09 Mostly Cloudy BKN100 12 2 51% 75.46 0.0
03 03:15 S 20 16.09 Partly Cloudy SCT100 13 0 41% 75.46 0.0
03 02:55 S 20 16.09 Overcast OVC100 13 0 41% 75.49 0.0
03 02:35 S 26 16.09 Partly Cloudy SCT110 13 0 41% 75.51 0.0
03 02:15 S 24 16.09 Partly Cloudy FEW075 FEW090 SCT110 14 0 39% 75.51 0.0
03 01:55 S 28 16.09 Mostly Cloudy FEW020 SCT042 BKN075 14 0 39% 75.54 0.0
03 01:35 SE 28 16.09 Mostly Cloudy FEW020 SCT042 BKN070 14 1 41% 75.57 0.0
03 01:15 SE 24 16.09 Mostly Cloudy FEW021 SCT042 BKN060 14 0 39% 75.64 0.0
03 00:55 SE 13 16.09 Overcast FEW047 BKN070 OVC090 14 1 41% 75.67 0.0
03 00:35 SE 13 16.09 Overcast SCT075 OVC090 15 0 36% 75.69 0.0
Date Time (cdt) Wind (kph) Vis. (km) Weather Sky Cond. Air Dwpt Max. Min. Relative Humidity Wind Chill (°C) Heat Index (°C) altimeter (cm) sea level (mb) 1 hr 3 hr 6 hr
6 hour
Temperature (ºC) Pressure Precipitation (cm)